Time;durP1;ratioP1;P1;durP2;ratioP2;P2;SDS_P1;SDS_P2;PMS_P1;PMS_P2;Temp;Humidity;BMP_temperature;BMP_pressure;BME280_temperature;BME280_humidity;BME280_pressure;Samples;Min_cycle;Max_cycle;Signal;HPM_P1;HPM_P2
2023/03/30 00:01:47;;;;;;;4.88;2.70;;;12.60;99.90;;;;;;5010862;28;20025;-74
2023/03/30 00:04:13;;;;;;;8.63;1.70;;;12.60;99.90;;;;;;5011112;28;20026;-73
2023/03/30 00:06:41;;;;;;;7.57;2.17;;;12.70;99.90;;;;;;5040769;28;20437;-73
2023/03/30 00:09:06;;;;;;;6.70;2.40;;;12.70;99.90;;;;;;5012546;28;20029;-74
2023/03/30 00:11:33;;;;;;;6.18;2.17;;;12.70;99.90;;;;;;5014468;28;20025;-74
2023/03/30 00:13:59;;;;;;;3.90;1.33;;;12.80;99.90;;;;;;5012669;28;20041;-74
2023/03/30 00:16:24;;;;;;;5.40;1.52;;;12.80;99.90;;;;;;5011385;28;20038;-74
2023/03/30 00:18:50;;;;;;;6.15;1.55;;;12.90;99.90;;;;;;5014653;28;20049;-75
2023/03/30 00:21:16;;;;;;;8.15;1.63;;;13.00;99.90;;;;;;5011902;28;20026;-74
2023/03/30 00:23:45;;;;;;;4.43;1.75;;;13.00;99.90;;;;;;5010912;28;20493;-74
2023/03/30 00:26:11;;;;;;;5.53;1.60;;;13.00;99.90;;;;;;5014084;28;20025;-74
2023/03/30 00:28:37;;;;;;;4.85;1.20;;;12.90;99.90;;;;;;5017464;28;20022;-74
2023/03/30 00:31:03;;;;;;;5.32;1.35;;;12.90;99.90;;;;;;5013788;28;20025;-74
2023/03/30 00:33:28;;;;;;;3.63;1.17;;;12.80;99.90;;;;;;5000605;28;20034;-74
2023/03/30 00:35:56;;;;;;;6.75;1.65;;;12.70;99.90;;;;;;5002873;28;20038;-74
2023/03/30 00:38:22;;;;;;;4.32;1.52;;;12.70;99.90;;;;;;5019464;28;20029;-74
2023/03/30 00:40:59;;;;;;;3.55;1.00;;;12.80;99.90;;;;;;5013886;28;20040;-74
2023/03/30 00:43:26;;;;;;;5.30;1.60;;;12.80;99.90;;;;;;5014078;28;20026;-74
2023/03/30 00:45:51;;;;;;;6.35;1.40;;;12.80;99.90;;;;;;5012439;28;20467;-75
2023/03/30 00:48:33;;;;;;;6.57;1.33;;;12.90;99.90;;;;;;5012661;28;20040;-74
2023/03/30 00:51:09;;;;;;;4.80;1.17;;;13.00;99.90;;;;;;5006786;28;20050;-74
2023/03/30 00:53:39;;;;;;;3.88;0.80;;;13.00;99.90;;;;;;5009884;28;20025;-74
2023/03/30 00:56:07;;;;;;;2.90;0.90;;;13.10;99.90;;;;;;5009120;28;20038;-74
2023/03/30 00:58:35;;;;;;;5.10;0.90;;;13.10;99.90;;;;;;5013259;28;20061;-74
2023/03/30 01:01:04;;;;;;;5.40;1.05;;;13.10;99.90;;;;;;5013218;28;20100;-74
2023/03/30 01:03:42;;;;;;;7.22;1.20;;;13.10;99.90;;;;;;5013705;28;20109;-74
2023/03/30 01:06:09;;;;;;;4.85;0.98;;;13.20;99.90;;;;;;5009330;28;20064;-74
2023/03/30 01:08:36;;;;;;;2.95;1.10;;;13.20;99.90;;;;;;5012377;28;20413;-74
2023/03/30 01:11:03;;;;;;;5.90;1.30;;;13.20;99.90;;;;;;5010592;28;20030;-74
2023/03/30 01:13:31;;;;;;;2.92;1.02;;;13.20;99.90;;;;;;5011635;28;20085;-74
2023/03/30 01:16:08;;;;;;;4.57;1.30;;;13.20;99.90;;;;;;5012284;28;20046;-74
2023/03/30 01:18:53;;;;;;;5.03;1.05;;;13.20;99.90;;;;;;5013451;28;20500;-74
2023/03/30 01:21:38;;;;;;;4.97;1.23;;;13.20;99.90;;;;;;5006837;28;20030;-74
2023/03/30 01:24:19;;;;;;;5.80;1.50;;;13.10;99.90;;;;;;5019712;28;20426;-74
2023/03/30 01:27:01;;;;;;;3.85;1.33;;;13.10;99.90;;;;;;5011908;28;20034;-74
2023/03/30 01:29:45;;;;;;;5.15;1.02;;;13.00;99.90;;;;;;5013398;28;20094;-74
2023/03/30 01:32:14;;;;;;;3.90;1.17;;;13.00;99.90;;;;;;5012450;28;20121;-74
2023/03/30 01:34:50;;;;;;;4.32;1.10;;;13.00;99.90;;;;;;5020431;28;20041;-74
2023/03/30 01:37:27;;;;;;;4.78;1.00;;;12.90;99.90;;;;;;5013214;28;20030;-74
2023/03/30 01:40:26;;;;;;;3.70;1.05;;;13.00;99.90;;;;;;5004595;28;20037;-74
2023/03/30 01:43:18;;;;;;;8.18;1.20;;;13.00;99.90;;;;;;5006432;28;20060;-74
2023/03/30 01:45:57;;;;;;;3.95;1.20;;;12.90;99.90;;;;;;5018892;28;20379;-74
2023/03/30 01:48:48;;;;;;;2.70;1.17;;;12.90;99.90;;;;;;5013441;28;20516;-74
2023/03/30 01:51:21;;;;;;;4.30;1.10;;;12.90;99.90;;;;;;4993368;28;20030;-74
2023/03/30 01:54:03;;;;;;;5.22;1.00;;;12.80;99.90;;;;;;5010119;28;20113;-74
2023/03/30 01:56:37;;;;;;;2.63;0.80;;;12.80;99.90;;;;;;4998270;28;20826;-74
2023/03/30 01:59:28;;;;;;;4.22;0.90;;;12.80;99.90;;;;;;4993499;28;20038;-74
2023/03/30 02:01:59;;;;;;;6.28;1.15;;;12.80;99.90;;;;;;4993449;28;20018;-74
2023/03/30 02:04:26;;;;;;;2.45;0.95;;;12.90;99.90;;;;;;5005925;28;20030;-74
2023/03/30 02:07:00;;;;;;;3.55;0.80;;;13.00;99.90;;;;;;5010933;28;20030;-74
2023/03/30 02:09:28;;;;;;;6.18;1.10;;;13.10;99.90;;;;;;5011875;28;20390;-74
2023/03/30 02:11:54;;;;;;;4.10;0.70;;;13.10;99.90;;;;;;5012751;28;20033;-74
2023/03/30 02:14:25;;;;;;;3.40;0.90;;;13.20;99.90;;;;;;5010533;28;20038;-74
2023/03/30 02:16:56;;;;;;;3.05;0.60;;;13.30;99.90;;;;;;5008831;28;20061;-74
2023/03/30 02:19:22;;;;;;;3.03;0.60;;;13.30;99.90;;;;;;5012028;28;20022;-74
2023/03/30 02:21:49;;;;;;;4.30;0.70;;;13.30;99.90;;;;;;5012122;28;20075;-74
2023/03/30 02:24:18;;;;;;;2.90;1.00;;;13.30;99.90;;;;;;5009685;28;20382;-74
2023/03/30 02:26:46;;;;;;;2.70;0.60;;;13.20;99.90;;;;;;5010873;28;20030;-74
2023/03/30 02:29:12;;;;;;;3.28;0.60;;;13.10;99.90;;;;;;5012285;28;20029;-74
2023/03/30 02:31:38;;;;;;;2.65;0.68;;;13.10;99.90;;;;;;5012386;28;20363;-74
2023/03/30 02:34:48;;;;;;;2.35;0.50;;;13.00;99.90;;;;;;5010974;28;20041;-74
2023/03/30 02:37:34;;;;;;;2.47;0.57;;;13.00;99.90;;;;;;5007128;28;20541;-74
2023/03/30 02:40:21;;;;;;;7.05;0.80;;;12.90;99.90;;;;;;4992635;28;20121;-74
2023/03/30 02:43:05;;;;;;;3.25;0.65;;;12.80;99.90;;;;;;5011330;28;20100;-74
2023/03/30 02:45:48;;;;;;;5.93;0.93;;;12.70;99.90;;;;;;5012822;28;20030;-74
2023/03/30 02:48:44;;;;;;;4.60;0.80;;;12.80;99.90;;;;;;4994014;28;20101;-74
2023/03/30 02:51:24;;;;;;;2.55;0.60;;;12.80;99.90;;;;;;4995354;28;20018;-74
2023/03/30 02:54:04;;;;;;;2.70;0.70;;;12.80;99.90;;;;;;5024227;28;20492;-74
2023/03/30 02:56:41;;;;;;;4.88;0.90;;;12.80;99.90;;;;;;4993768;28;20198;-74
2023/03/30 02:59:16;;;;;;;2.83;0.80;;;12.90;99.90;;;;;;5012139;28;20029;-74
2023/03/30 03:01:47;;;;;;;2.58;0.70;;;12.90;99.90;;;;;;5003447;28;20119;-74
2023/03/30 03:04:16;;;;;;;2.83;0.70;;;13.00;99.90;;;;;;4992063;28;20022;-74
2023/03/30 03:06:42;;;;;;;4.15;0.50;;;13.10;99.90;;;;;;5002622;28;20284;-74
2023/03/30 03:09:08;;;;;;;3.53;0.60;;;13.30;99.90;;;;;;5011829;28;20386;-74
2023/03/30 03:11:34;;;;;;;2.03;0.50;;;13.30;99.90;;;;;;5012772;28;20486;-74
2023/03/30 03:14:00;;;;;;;2.22;0.73;;;13.30;99.90;;;;;;5042709;28;20457;-74
2023/03/30 03:16:26;;;;;;;3.38;0.80;;;13.40;99.90;;;;;;5006681;28;20117;-75
2023/03/30 03:18:51;;;;;;;4.15;0.52;;;13.50;99.90;;;;;;5008049;28;20440;-74
2023/03/30 03:21:17;;;;;;;3.85;1.25;;;13.50;99.90;;;;;;5008569;28;20025;-74
2023/03/30 03:23:43;;;;;;;1.98;0.50;;;13.60;99.90;;;;;;5007346;28;20397;-74
2023/03/30 03:26:10;;;;;;;2.88;1.02;;;13.50;99.90;;;;;;5009676;28;20526;-74
2023/03/30 03:28:36;;;;;;;4.97;0.60;;;13.50;99.90;;;;;;5011058;28;20056;-74
2023/03/30 03:31:02;;;;;;;2.75;0.40;;;13.50;99.90;;;;;;5008188;28;20049;-77
2023/03/30 03:33:30;;;;;;;3.78;0.30;;;13.50;99.90;;;;;;5006752;28;20484;-74
2023/03/30 03:35:58;;;;;;;2.95;0.50;;;13.60;99.90;;;;;;5004427;28;20116;-74
2023/03/30 03:38:25;;;;;;;4.20;0.40;;;13.80;99.90;;;;;;4999080;28;20096;-74
2023/03/30 03:40:53;;;;;;;3.13;0.50;;;13.70;99.90;;;;;;5011656;28;20034;-74
2023/03/30 03:43:20;;;;;;;1.88;0.40;;;13.70;99.90;;;;;;5010584;28;20072;-74
2023/03/30 03:45:46;;;;;;;5.50;0.50;;;13.70;99.90;;;;;;5005626;28;20522;-74
2023/03/30 03:48:13;;;;;;;4.75;0.50;;;13.70;99.90;;;;;;5000860;28;20510;-75
2023/03/30 03:50:38;;;;;;;3.78;1.05;;;13.60;99.90;;;;;;5011464;28;20397;-74
2023/03/30 03:53:04;;;;;;;4.05;0.47;;;13.60;99.90;;;;;;5009923;28;20117;-74
2023/03/30 03:55:33;;;;;;;2.63;0.60;;;13.50;99.90;;;;;;5012463;28;20080;-73
2023/03/30 03:57:59;;;;;;;3.00;0.40;;;13.50;99.90;;;;;;5010759;28;20085;-73
2023/03/30 04:00:25;;;;;;;2.22;0.40;;;13.40;99.90;;;;;;5009558;28;20029;-74
2023/03/30 04:02:51;;;;;;;4.90;0.40;;;13.40;99.90;;;;;;5011392;28;20493;-74
2023/03/30 04:05:16;;;;;;;3.22;0.40;;;13.30;99.90;;;;;;5012806;28;20138;-74
2023/03/30 04:07:45;;;;;;;4.13;0.47;;;13.30;99.90;;;;;;5010101;28;20026;-74
2023/03/30 04:10:11;;;;;;;2.42;0.63;;;13.30;99.90;;;;;;4996298;28;20037;-74
2023/03/30 04:12:37;;;;;;;5.88;0.47;;;13.20;99.90;;;;;;5009446;28;20095;-74
2023/03/30 04:15:04;;;;;;;1.67;0.47;;;13.20;99.90;;;;;;5010455;28;20105;-74
2023/03/30 04:17:32;;;;;;;2.00;0.40;;;13.10;99.90;;;;;;5005566;28;20025;-74
2023/03/30 04:20:00;;;;;;;6.75;0.57;;;13.00;99.90;;;;;;5011127;28;20589;-74
2023/03/30 04:22:31;;;;;;;2.92;0.43;;;13.00;99.90;;;;;;5010704;28;20037;-74
2023/03/30 04:24:58;;;;;;;4.35;0.60;;;13.00;99.90;;;;;;5008007;28;20036;-74
2023/03/30 04:27:24;;;;;;;3.25;0.40;;;13.10;99.90;;;;;;5010678;28;20029;-74
2023/03/30 04:29:50;;;;;;;4.88;0.55;;;13.10;99.90;;;;;;5013088;28;20444;-75
2023/03/30 04:32:19;;;;;;;3.42;0.60;;;13.10;99.90;;;;;;5011737;28;20022;-75
2023/03/30 04:34:45;;;;;;;4.90;0.75;;;13.20;99.90;;;;;;5009107;28;20639;-74
2023/03/30 04:37:17;;;;;;;3.05;0.80;;;13.20;99.90;;;;;;5009167;28;20398;-74
2023/03/30 04:39:45;;;;;;;6.70;0.80;;;13.30;99.90;;;;;;4995015;28;20026;-74
2023/03/30 04:42:13;;;;;;;5.60;0.80;;;13.30;99.90;;;;;;5007570;28;20432;-74
2023/03/30 04:44:41;;;;;;;6.07;0.95;;;13.30;99.90;;;;;;5010231;28;20499;-74
2023/03/30 04:47:07;;;;;;;2.47;0.70;;;13.40;99.90;;;;;;5005010;28;20025;-74
2023/03/30 04:49:33;;;;;;;4.22;0.60;;;13.30;99.90;;;;;;5004795;28;20026;-74
2023/03/30 04:51:58;;;;;;;4.53;1.05;;;13.40;99.90;;;;;;5021453;28;20092;-74
2023/03/30 04:54:24;;;;;;;4.55;0.95;;;13.40;99.90;;;;;;5007758;28;20044;-75
2023/03/30 04:56:49;;;;;;;5.45;0.60;;;13.30;99.90;;;;;;5014722;28;20046;-76
2023/03/30 04:59:15;;;;;;;5.00;0.95;;;13.40;99.90;;;;;;4998774;28;20117;-73
2023/03/30 05:01:40;;;;;;;6.80;0.90;;;13.30;99.90;;;;;;5010398;28;20511;-73
2023/03/30 05:04:06;;;;;;;5.25;0.93;;;13.10;99.90;;;;;;5004619;28;20033;-73
2023/03/30 05:06:32;;;;;;;3.83;1.15;;;13.10;99.90;;;;;;5003411;28;20121;-72
2023/03/30 05:08:57;;;;;;;3.38;1.23;;;13.00;99.90;;;;;;5010167;28;20470;-73
2023/03/30 05:11:23;;;;;;;6.63;1.38;;;12.90;99.90;;;;;;5009012;28;20429;-73
2023/03/30 05:13:52;;;;;;;8.73;0.90;;;12.90;99.90;;;;;;5010953;28;20478;-73
2023/03/30 05:16:18;;;;;;;6.00;0.75;;;12.90;99.90;;;;;;5011468;28;20034;-73
2023/03/30 05:18:44;;;;;;;8.80;1.48;;;12.80;99.90;;;;;;5013204;28;20109;-73
2023/03/30 05:21:10;;;;;;;4.82;0.90;;;12.80;99.90;;;;;;5007474;28;20026;-74
2023/03/30 05:23:38;;;;;;;4.13;1.10;;;12.80;99.90;;;;;;5011167;28;20113;-73
2023/03/30 05:26:06;;;;;;;3.97;0.77;;;12.80;99.90;;;;;;5012779;28;20040;-74
2023/03/30 05:28:32;;;;;;;7.93;1.10;;;12.70;99.90;;;;;;5011041;28;20034;-73
2023/03/30 05:30:57;;;;;;;5.65;0.70;;;12.70;99.90;;;;;;5016836;28;20060;-72
2023/03/30 05:33:23;;;;;;;3.15;0.52;;;12.70;99.90;;;;;;5021423;28;20056;-73
2023/03/30 05:35:49;;;;;;;5.95;0.77;;;12.70;99.90;;;;;;5010159;28;20064;-73
2023/03/30 05:38:15;;;;;;;4.50;0.52;;;12.70;99.90;;;;;;5005108;28;20026;-73
2023/03/30 05:40:41;;;;;;;7.13;1.77;;;12.70;99.90;;;;;;5015705;28;20034;-73
2023/03/30 05:43:06;;;;;;;9.70;1.10;;;12.70;99.90;;;;;;5009206;28;20048;-73
2023/03/30 05:45:32;;;;;;;5.30;0.90;;;12.70;99.90;;;;;;5008272;28;20034;-74
2023/03/30 05:47:57;;;;;;;5.80;0.82;;;12.70;99.90;;;;;;5009430;28;20517;-73
2023/03/30 05:50:23;;;;;;;6.90;0.88;;;12.70;99.90;;;;;;5011425;28;20037;-73
2023/03/30 05:52:49;;;;;;;6.10;0.65;;;12.70;99.90;;;;;;5009056;28;20120;-73
2023/03/30 05:55:15;;;;;;;6.43;1.15;;;12.70;99.90;;;;;;5003318;28;20033;-73
2023/03/30 05:57:40;;;;;;;7.45;0.90;;;12.80;99.90;;;;;;5006052;28;20113;-73
2023/03/30 06:00:08;;;;;;;7.63;0.90;;;12.80;99.90;;;;;;4996133;28;20105;-73
2023/03/30 06:02:34;;;;;;;8.35;0.90;;;12.80;99.90;;;;;;5005579;28;20038;-74
2023/03/30 06:05:00;;;;;;;5.55;1.38;;;12.80;99.90;;;;;;5008351;28;20112;-74
2023/03/30 06:07:26;;;;;;;8.70;0.80;;;12.80;99.90;;;;;;5006413;28;20041;-74
2023/03/30 06:09:52;;;;;;;10.63;2.03;;;12.80;99.90;;;;;;5012594;28;20022;-74
2023/03/30 06:12:18;;;;;;;5.70;1.08;;;12.80;99.90;;;;;;5008931;28;20529;-74
2023/03/30 06:14:43;;;;;;;7.18;1.27;;;12.80;99.90;;;;;;5021714;28;20104;-74
2023/03/30 06:17:11;;;;;;;5.35;1.05;;;12.80;99.90;;;;;;5014248;28;20099;-75
2023/03/30 06:19:37;;;;;;;3.78;1.02;;;12.80;99.90;;;;;;5010845;28;20018;-74
2023/03/30 06:22:03;;;;;;;10.10;1.95;;;12.80;99.90;;;;;;5019831;28;20034;-74
2023/03/30 06:24:29;;;;;;;7.13;1.23;;;12.80;99.90;;;;;;5021360;28;20398;-74
2023/03/30 06:26:55;;;;;;;8.52;1.00;;;12.80;99.90;;;;;;4999440;28;20053;-74
2023/03/30 06:29:21;;;;;;;7.03;1.63;;;12.80;99.90;;;;;;5009255;28;20381;-74
2023/03/30 06:31:47;;;;;;;6.72;1.35;;;12.80;99.90;;;;;;5010831;28;20070;-74
2023/03/30 06:34:13;;;;;;;7.43;1.40;;;12.80;99.90;;;;;;5017715;28;20052;-74
2023/03/30 06:36:38;;;;;;;5.15;1.08;;;12.80;99.90;;;;;;5010638;28;20038;-74
2023/03/30 06:39:04;;;;;;;7.63;1.13;;;12.80;99.90;;;;;;5013139;28;20032;-74
2023/03/30 06:41:30;;;;;;;7.30;0.93;;;12.70;99.90;;;;;;5011302;28;20389;-74
2023/03/30 06:43:55;;;;;;;8.73;1.63;;;12.70;99.90;;;;;;5002972;28;20045;-74
2023/03/30 06:46:21;;;;;;;7.55;1.38;;;12.70;99.90;;;;;;5009431;28;20034;-74
2023/03/30 06:48:47;;;;;;;8.40;0.93;;;12.70;99.90;;;;;;5015112;28;20478;-74
2023/03/30 06:51:13;;;;;;;5.68;0.70;;;12.70;99.90;;;;;;5009036;28;20041;-74
2023/03/30 06:53:39;;;;;;;7.68;1.00;;;12.70;99.90;;;;;;5011872;28;20050;-73
2023/03/30 06:56:06;;;;;;;7.57;1.00;;;12.70;99.90;;;;;;5010293;28;20048;-74
2023/03/30 06:58:33;;;;;;;7.20;1.17;;;12.80;99.90;;;;;;5011699;28;20510;-74
2023/03/30 07:01:07;;;;;;;9.07;1.55;;;12.80;99.90;;;;;;5009692;28;20079;-74
2023/03/30 07:03:32;;;;;;;7.88;0.98;;;12.80;99.90;;;;;;5002741;28;20045;-74
2023/03/30 07:05:58;;;;;;;10.45;0.80;;;12.80;99.90;;;;;;5009090;28;20027;-74
2023/03/30 07:08:23;;;;;;;10.70;1.27;;;12.80;99.90;;;;;;5011631;28;20033;-75
2023/03/30 07:10:50;;;;;;;11.13;1.38;;;12.70;99.90;;;;;;5004799;28;20616;-75
2023/03/30 07:13:16;;;;;;;4.55;0.80;;;12.60;99.90;;;;;;5010603;28;20108;-75
2023/03/30 07:15:42;;;;;;;11.32;1.23;;;12.50;99.90;;;;;;5006446;28;20041;-74
2023/03/30 07:18:08;;;;;;;6.97;1.08;;;12.50;99.90;;;;;;5007425;28;20109;-75
2023/03/30 07:20:34;;;;;;;12.02;1.67;;;12.50;99.90;;;;;;5003015;28;20110;-74
2023/03/30 07:23:01;;;;;;;19.58;2.75;;;12.50;99.90;;;;;;5007106;28;20026;-73
2023/03/30 07:25:27;;;;;;;15.75;1.17;;;12.60;99.90;;;;;;4997679;28;20033;-74
2023/03/30 07:27:52;;;;;;;7.50;1.55;;;12.80;99.90;;;;;;5009249;28;20428;-74
2023/03/30 07:30:18;;;;;;;11.88;1.20;;;12.90;99.90;;;;;;5010821;28;20026;-74
2023/03/30 07:32:44;;;;;;;8.45;1.10;;;12.90;99.90;;;;;;5011441;28;20018;-74
2023/03/30 07:35:10;;;;;;;11.85;1.00;;;13.00;99.90;;;;;;4999536;28;20061;-75
2023/03/30 07:37:38;;;;;;;13.02;1.02;;;13.10;99.90;;;;;;5005079;28;20109;-73
2023/03/30 07:40:09;;;;;;;8.88;1.00;;;13.30;99.90;;;;;;5008152;28;20394;-73
2023/03/30 07:42:35;;;;;;;14.35;1.42;;;13.40;99.90;;;;;;4999738;28;20419;-73
2023/03/30 07:45:01;;;;;;;10.85;1.08;;;13.60;99.90;;;;;;5008119;28;20410;-73
2023/03/30 07:47:27;;;;;;;7.45;1.10;;;13.60;99.90;;;;;;5010388;28;20387;-73
2023/03/30 07:49:52;;;;;;;9.68;0.73;;;13.70;99.90;;;;;;5007591;28;20033;-73
2023/03/30 07:52:18;;;;;;;8.75;0.85;;;13.70;99.90;;;;;;5002892;28;20025;-73
2023/03/30 07:54:44;;;;;;;14.25;1.27;;;13.80;99.90;;;;;;5009478;28;20041;-73
2023/03/30 07:57:10;;;;;;;10.07;1.73;;;13.80;99.90;;;;;;5010687;28;20037;-73
2023/03/30 07:59:36;;;;;;;15.05;1.73;;;13.80;99.90;;;;;;5011089;28;20037;-74
2023/03/30 08:02:03;;;;;;;14.27;1.30;;;13.70;99.90;;;;;;4992989;28;20520;-74
2023/03/30 08:04:29;;;;;;;11.00;1.10;;;13.70;99.90;;;;;;5004630;28;20106;-74
2023/03/30 08:06:54;;;;;;;11.13;0.90;;;13.70;99.90;;;;;;5007239;28;20034;-73
2023/03/30 08:09:20;;;;;;;8.68;0.80;;;13.70;99.90;;;;;;5010196;28;20028;-74
2023/03/30 08:11:46;;;;;;;11.65;0.95;;;13.80;99.90;;;;;;5016073;28;20112;-75
2023/03/30 08:14:11;;;;;;;12.10;0.90;;;13.70;99.90;;;;;;5009161;28;20077;-74
2023/03/30 08:16:37;;;;;;;11.43;1.02;;;13.80;99.90;;;;;;5040740;28;20474;-75
2023/03/30 08:19:02;;;;;;;9.23;1.15;;;13.80;99.90;;;;;;5017770;28;20030;-75
2023/03/30 08:21:28;;;;;;;13.90;1.90;;;13.80;99.90;;;;;;5032678;28;20120;-75
2023/03/30 08:23:57;;;;;;;10.05;1.30;;;13.80;99.90;;;;;;5008237;28;20115;-75
2023/03/30 08:26:23;;;;;;;11.80;1.35;;;13.90;99.90;;;;;;5010907;28;20381;-75
2023/03/30 08:28:50;;;;;;;14.23;1.50;;;13.80;99.90;;;;;;5015280;28;20032;-75
2023/03/30 08:31:16;;;;;;;12.20;0.93;;;13.90;99.90;;;;;;5013411;28;20044;-76
2023/03/30 08:33:43;;;;;;;9.95;1.05;;;13.90;99.90;;;;;;5016263;28;20030;-75
2023/03/30 08:36:09;;;;;;;12.13;1.25;;;13.90;99.90;;;;;;5010704;28;20042;-76
2023/03/30 08:38:35;;;;;;;15.88;1.38;;;13.80;99.90;;;;;;5008073;28;20031;-75
2023/03/30 08:41:01;;;;;;;15.70;1.35;;;13.90;99.90;;;;;;4999657;28;20045;-75
2023/03/30 08:43:35;;;;;;;16.17;1.35;;;13.90;99.90;;;;;;5014691;28;20462;-75
2023/03/30 08:46:02;;;;;;;10.95;1.20;;;14.00;99.90;;;;;;5000558;28;20536;-75
2023/03/30 08:48:34;;;;;;;15.13;1.48;;;14.10;99.90;;;;;;5010858;28;20073;-75
2023/03/30 08:51:10;;;;;;;10.17;1.37;;;14.10;99.90;;;;;;5013401;28;20030;-75
2023/03/30 08:53:36;;;;;;;13.75;1.52;;;14.20;99.90;;;;;;5015224;28;20477;-75
2023/03/30 08:56:12;;;;;;;9.38;1.55;;;14.20;99.90;;;;;;5008024;28;20060;-75
2023/03/30 08:58:57;;;;;;;12.25;1.20;;;14.30;99.90;;;;;;5014421;28;20057;-75
2023/03/30 09:01:39;;;;;;;7.13;1.00;;;14.20;99.90;;;;;;5015430;28;20071;-74
2023/03/30 09:04:39;;;;;;;11.17;1.23;;;14.30;99.90;;;;;;4997244;28;20088;-75
2023/03/30 09:07:11;;;;;;;11.95;0.95;;;14.40;99.90;;;;;;5009004;28;20301;-75
2023/03/30 09:09:44;;;;;;;13.20;1.43;;;14.40;99.90;;;;;;5026480;28;20026;-75
2023/03/30 09:12:22;;;;;;;16.50;2.38;;;14.40;99.90;;;;;;5000141;28;20064;-75
2023/03/30 09:14:54;;;;;;;13.57;1.25;;;14.30;99.90;;;;;;5006379;28;20125;-76
2023/03/30 09:17:47;;;;;;;11.32;1.20;;;14.30;99.90;;;;;;5008976;28;20033;-75
2023/03/30 09:20:23;;;;;;;9.15;0.82;;;14.40;99.90;;;;;;5008189;28;20030;-74
2023/03/30 09:22:50;;;;;;;14.45;1.20;;;14.30;99.90;;;;;;5014156;28;20025;-75
2023/03/30 09:25:36;;;;;;;14.10;1.50;;;14.30;99.90;;;;;;5004720;28;20065;-75
2023/03/30 09:28:13;;;;;;;11.77;1.00;;;14.40;99.90;;;;;;4996720;28;20109;-75
2023/03/30 09:30:42;;;;;;;15.55;1.38;;;14.40;99.90;;;;;;5013474;28;20026;-75
2023/03/30 09:33:42;;;;;;;12.27;1.17;;;14.40;99.90;;;;;;5012177;28;20022;-74
2023/03/30 09:36:30;;;;;;;12.02;1.42;;;14.40;99.90;;;;;;5033570;28;20038;-75
2023/03/30 09:38:55;;;;;;;11.73;1.40;;;14.40;99.90;;;;;;5012160;28;20105;-73
2023/03/30 09:41:56;;;;;;;11.82;1.30;;;14.40;99.90;;;;;;5010259;28;20561;-73
2023/03/30 09:44:27;;;;;;;17.33;1.67;;;14.40;99.90;;;;;;5017031;28;20068;-74
2023/03/30 09:46:57;;;;;;;18.65;2.40;;;14.50;99.90;;;;;;5010949;28;20061;-73
2023/03/30 09:49:27;;;;;;;15.93;2.28;;;14.60;99.90;;;;;;5006432;28;20181;-73
2023/03/30 09:51:59;;;;;;;12.77;2.35;;;14.50;99.90;;;;;;5000461;28;20130;-73
2023/03/30 09:54:35;;;;;;;20.58;2.53;;;14.50;99.90;;;;;;5006250;28;20033;-75
2023/03/30 09:57:01;;;;;;;17.95;2.45;;;14.60;99.90;;;;;;5008945;28;20903;-76
2023/03/30 09:59:30;;;;;;;13.32;1.35;;;14.60;99.90;;;;;;5006957;28;20824;-75
2023/03/30 10:02:14;;;;;;;13.98;2.10;;;14.80;99.90;;;;;;5005186;28;20026;-75
2023/03/30 10:05:01;;;;;;;12.27;1.58;;;15.00;99.90;;;;;;5013392;28;20404;-75
2023/03/30 10:07:40;;;;;;;16.95;2.60;;;15.10;99.90;;;;;;5004170;28;20060;-75
2023/03/30 10:10:25;;;;;;;17.85;2.17;;;15.20;99.90;;;;;;5005664;28;20590;-75
2023/03/30 10:13:00;;;;;;;15.85;1.45;;;15.20;99.90;;;;;;5001572;28;20487;-75
2023/03/30 10:15:30;;;;;;;14.07;1.20;;;15.30;99.90;;;;;;4995975;28;20049;-75
2023/03/30 10:18:01;;;;;;;15.93;2.03;;;15.40;99.90;;;;;;4999502;28;20398;-73
2023/03/30 10:20:38;;;;;;;12.18;1.55;;;15.50;99.90;;;;;;5009211;28;20371;-73
2023/03/30 10:23:14;;;;;;;16.77;2.03;;;15.70;99.90;;;;;;5008212;28;20080;-73
2023/03/30 10:25:41;;;;;;;10.15;1.40;;;15.80;99.90;;;;;;4999419;28;20026;-73
2023/03/30 10:28:25;;;;;;;14.52;1.83;;;15.80;99.90;;;;;;5010678;28;20044;-73
2023/03/30 10:30:55;;;;;;;17.63;2.05;;;15.90;99.90;;;;;;4995770;28;20109;-73
2023/03/30 10:33:21;;;;;;;13.43;1.52;;;15.90;99.90;;;;;;5010336;28;20318;-75
2023/03/30 10:35:50;;;;;;;10.15;1.83;;;15.70;99.90;;;;;;5005797;28;20495;-73
2023/03/30 10:38:16;;;;;;;19.02;2.47;;;15.50;99.90;;;;;;4999664;28;20107;-73
2023/03/30 10:40:44;;;;;;;12.40;1.85;;;15.40;99.90;;;;;;4997415;28;20517;-73
2023/03/30 10:43:16;;;;;;;13.43;2.40;;;15.50;99.90;;;;;;4998212;28;20161;-73
2023/03/30 10:45:49;;;;;;;;;;;15.60;99.90;;;;;;5002525;28;20030;-73
2023/03/30 10:48:30;;;;;;;16.02;2.65;;;15.60;99.90;;;;;;4994549;28;19960;-73
2023/03/30 10:51:25;;;;;;;9.48;1.58;;;15.50;99.90;;;;;;5027218;28;20552;-73
2023/03/30 10:54:19;;;;;;;14.65;1.55;;;15.50;99.90;;;;;;5005912;28;20040;-73
2023/03/30 10:57:00;;;;;;;20.90;2.80;;;15.70;99.90;;;;;;4993315;28;20042;-73
2023/03/30 10:59:44;;;;;;;16.38;1.40;;;15.90;99.90;;;;;;5006879;28;20027;-73
2023/03/30 11:02:26;;;;;;;15.88;1.55;;;15.90;99.90;;;;;;5004986;28;20108;-73
2023/03/30 11:05:01;;;;;;;15.20;1.73;;;16.00;99.90;;;;;;5009689;28;20053;-73
2023/03/30 11:07:36;;;;;;;15.73;2.08;;;16.20;99.90;;;;;;5006408;28;20033;-73
2023/03/30 11:10:28;;;;;;;13.43;2.13;;;16.30;99.90;;;;;;4996724;28;20022;-75
2023/03/30 11:13:00;;;;;;;12.57;2.20;;;16.10;99.90;;;;;;4991977;28;20042;-74
2023/03/30 11:15:57;;;;;;;17.48;2.63;;;16.00;99.90;;;;;;4996352;28;20375;-74
2023/03/30 11:18:30;;;;;;;12.93;1.63;;;15.80;99.90;;;;;;5009914;28;20045;-74
2023/03/30 11:21:01;;;;;;;19.67;1.85;;;15.80;99.90;;;;;;4998348;28;20574;-74
2023/03/30 11:23:53;;;;;;;9.75;1.33;;;16.00;99.90;;;;;;5012666;28;20379;-74
2023/03/30 11:26:44;;;;;;;14.85;1.48;;;16.30;99.90;;;;;;5009290;28;20034;-74
2023/03/30 11:29:23;;;;;;;13.90;1.50;;;16.50;99.90;;;;;;5001167;28;20033;-74
2023/03/30 11:32:28;;;;;;;12.88;1.83;;;16.50;99.90;;;;;;5002468;28;20033;-74
2023/03/30 11:35:12;;;;;;;13.30;1.42;;;16.60;99.90;;;;;;4997323;28;20045;-74
2023/03/30 11:37:45;;;;;;;18.50;3.42;;;16.60;99.90;;;;;;5007659;28;20049;-74
2023/03/30 11:40:20;;;;;;;16.65;2.15;;;16.50;99.90;;;;;;5003353;28;20028;-74
2023/03/30 11:42:46;;;;;;;16.08;1.95;;;16.50;99.90;;;;;;5011342;28;20064;-74
2023/03/30 11:45:43;;;;;;;12.20;1.48;;;16.60;99.90;;;;;;5000180;28;20487;-74
2023/03/30 11:48:20;;;;;;;14.75;1.45;;;16.50;99.90;;;;;;5010613;28;20045;-74
2023/03/30 11:51:01;;;;;;;11.65;1.35;;;16.40;99.90;;;;;;5008986;28;20052;-74
2023/03/30 11:53:50;;;;;;;14.25;1.50;;;16.30;99.90;;;;;;4998771;28;20026;-74
2023/03/30 11:56:35;;;;;;;13.13;1.67;;;16.00;99.90;;;;;;4991097;28;20517;-73
2023/03/30 11:59:05;;;;;;;9.27;1.50;;;15.00;99.90;;;;;;5000080;28;20438;-74
2023/03/30 12:02:08;;;;;;;11.82;2.03;;;14.10;99.90;;;;;;5006930;28;20069;-74
2023/03/30 12:04:44;;;;;;;18.30;2.38;;;13.70;99.90;;;;;;5002225;28;20033;-73
2023/03/30 12:07:30;;;;;;;19.95;2.08;;;13.40;99.90;;;;;;5006356;28;20041;-74
2023/03/30 12:10:00;;;;;;;13.85;1.73;;;13.20;99.90;;;;;;4997030;28;20482;-73
2023/03/30 12:12:37;;;;;;;20.70;2.60;;;13.10;99.90;;;;;;5003065;28;20061;-74
2023/03/30 12:15:25;;;;;;;17.15;2.53;;;13.30;99.90;;;;;;5030239;28;20116;-73
2023/03/30 12:18:03;;;;;;;15.40;1.90;;;13.30;99.90;;;;;;5008183;28;20049;-74
2023/03/30 12:21:08;;;;;;;14.43;2.17;;;13.30;99.90;;;;;;5001922;28;20026;-73
2023/03/30 12:24:01;;;;;;;9.95;1.38;;;13.00;99.90;;;;;;5015401;28;20038;-73
2023/03/30 12:26:28;;;;;;;;;;;12.60;99.90;;;;;;4999067;28;20036;-73
2023/03/30 12:29:09;;;;;;;11.13;1.40;;;12.20;99.90;;;;;;5006679;28;20325;-73
2023/03/30 12:31:57;;;;;;;16.20;2.28;;;11.90;99.90;;;;;;5005880;28;20018;-73
2023/03/30 12:34:27;;;;;;;20.33;2.20;;;11.80;99.90;;;;;;5000638;28;20026;-73
2023/03/30 12:36:56;;;;;;;15.80;2.67;;;11.70;99.90;;;;;;5003118;28;20045;-72
2023/03/30 12:39:52;;;;;;;17.80;2.38;;;11.90;99.90;;;;;;5006157;28;20389;-73
2023/03/30 12:42:33;;;;;;;16.88;2.58;;;12.30;99.90;;;;;;5003695;28;20030;-73
2023/03/30 12:45:32;;;;;;;14.15;2.00;;;12.60;99.90;;;;;;5007782;28;20030;-73
2023/03/30 12:48:34;;;;;;;12.95;2.08;;;12.80;99.90;;;;;;5009760;28;20029;-73
2023/03/30 12:51:33;;;;;;;16.95;1.70;;;13.00;99.90;;;;;;5001373;28;20044;-73
2023/03/30 12:54:22;;;;;;;21.33;2.28;;;13.30;99.90;;;;;;4999481;28;20026;-73
2023/03/30 12:57:26;;;;;;;15.40;1.85;;;13.60;99.90;;;;;;5001522;28;20077;-73
2023/03/30 13:00:07;;;;;;;18.98;1.80;;;13.90;99.90;;;;;;5006210;28;20026;-74
2023/03/30 13:02:39;;;;;;;16.45;2.28;;;13.90;99.90;;;;;;5002687;28;20041;-73
2023/03/30 13:05:28;;;;;;;18.58;2.17;;;13.90;99.90;;;;;;5041259;28;20033;-74
2023/03/30 13:07:55;;;;;;;10.32;1.80;;;14.00;99.90;;;;;;5008116;28;20373;-74
2023/03/30 13:10:29;;;;;;;10.35;1.50;;;14.30;99.90;;;;;;5028176;28;20032;-74